Time;durP1;ratioP1;P1;durP2;ratioP2;P2;SDS_P1;SDS_P2;PMS_P1;PMS_P2;Temp;Humidity;BMP_temperature;BMP_pressure;BME280_temperature;BME280_humidity;BME280_pressure;Samples;Min_cycle;Max_cycle;Signal;HPM_P1;HPM_P2
2023/08/22 00:01:33;;;;;;;10.93;4.70;;;;;;;21.29;100.00;151373.03;5012194;28;20231;-56
2023/08/22 00:03:59;;;;;;;5.70;4.10;;;;;;;21.24;100.00;151360.50;5014588;28;20228;-56
2023/08/22 00:06:26;;;;;;;11.30;4.33;;;;;;;21.26;100.00;151364.28;5010403;28;20254;-56
2023/08/22 00:08:54;;;;;;;8.87;4.67;;;;;;;21.20;100.00;151350.50;5015003;28;20224;-57
2023/08/22 00:11:20;;;;;;;9.10;4.00;;;;;;;21.19;100.00;151348.00;5008425;28;20229;-58
2023/08/22 00:13:47;;;;;;;6.60;3.93;;;;;;;21.17;100.00;151343.00;5015109;28;20874;-57
2023/08/22 00:16:14;;;;;;;6.40;4.40;;;;;;;21.10;100.00;151326.69;5010889;28;20253;-55
2023/08/22 00:18:40;;;;;;;5.23;4.50;;;;;;;21.15;100.00;151337.97;5016277;28;20230;-56
2023/08/22 00:21:07;;;;;;;6.50;4.23;;;;;;;21.11;100.00;151327.94;5012641;28;20689;-57
2023/08/22 00:23:33;;;;;;;6.17;4.13;;;;;;;21.06;100.00;151317.94;5014389;28;20242;-56
2023/08/22 00:26:01;;;;;;;7.33;4.20;;;;;;;21.05;100.00;151314.13;5009902;28;20314;-58
2023/08/22 00:28:28;;;;;;;6.50;3.97;;;;;;;21.01;100.00;151304.09;5008624;28;20252;-56
2023/08/22 00:30:55;;;;;;;8.33;4.30;;;;;;;21.01;100.00;151305.38;4986302;28;20222;-57
2023/08/22 00:33:22;;;;;;;7.60;3.80;;;;;;;21.03;100.00;151310.41;5011631;28;20309;-57
2023/08/22 00:35:49;;;;;;;6.57;4.10;;;;;;;21.01;100.00;151305.38;5008860;28;20238;-54
2023/08/22 00:38:15;;;;;;;7.23;3.80;;;;;;;20.97;100.00;151294.09;4980363;28;20322;-57
2023/08/22 00:40:42;;;;;;;6.30;3.93;;;;;;;20.97;100.00;151294.09;4981565;28;20236;-55
2023/08/22 00:43:10;;;;;;;5.53;4.23;;;;;;;20.98;100.00;151296.59;5009844;28;20571;-54
2023/08/22 00:45:40;;;;;;;7.93;4.60;;;;;;;20.90;100.00;151277.81;4984686;28;20318;-56
2023/08/22 00:48:07;;;;;;;9.23;4.33;;;;;;;20.87;100.00;151270.28;4990985;28;20219;-57
2023/08/22 00:50:34;;;;;;;5.67;3.80;;;;;;;20.82;100.00;151259.00;4995224;28;20238;-57
2023/08/22 00:53:01;;;;;;;6.27;3.90;;;;;;;20.77;100.00;151246.41;4983942;28;20229;-57
2023/08/22 00:55:28;;;;;;;6.90;4.33;;;;;;;20.76;100.00;151245.19;5013389;28;20233;-58
2023/08/22 00:57:55;;;;;;;7.43;4.30;;;;;;;20.74;100.00;151238.88;5012004;28;20236;-56
2023/08/22 01:00:23;;;;;;;5.80;5.17;;;;;;;20.71;100.00;151232.66;4996632;28;20227;-55
2023/08/22 01:02:50;;;;;;;6.83;4.70;;;;;;;20.67;100.00;151221.38;4988111;28;20247;-57
2023/08/22 01:05:16;;;;;;;6.87;4.27;;;;;;;20.64;100.00;151216.38;4977669;28;20226;-58
2023/08/22 01:07:49;;;;;;;9.77;4.43;;;;;;;20.61;100.00;151208.84;5012410;28;20320;-57
2023/08/22 01:10:20;;;;;;;4.60;3.67;;;;;;;20.55;100.00;151192.53;5008167;28;20249;-58
2023/08/22 01:12:53;;;;;;;5.77;4.80;;;;;;;20.55;100.00;151193.81;4992180;28;20321;-57
2023/08/22 01:15:25;;;;;;;7.73;4.70;;;;;;;20.54;100.00;151190.03;5004425;28;20239;-56
2023/08/22 01:17:54;;;;;;;6.13;4.53;;;;;;;20.59;100.00;151202.56;4994166;28;20226;-57
2023/08/22 01:20:21;;;;;;;6.23;4.57;;;;;;;20.56;100.00;151195.06;5005124;28;20255;-58
2023/08/22 01:22:49;;;;;;;6.73;4.40;;;;;;;20.55;100.00;151192.53;4992899;28;20248;-57
2023/08/22 01:25:16;;;;;;;10.70;4.40;;;;;;;20.53;100.00;151187.53;5005441;28;20755;-58
2023/08/22 01:27:50;;;;;;;7.67;4.67;;;;;;;20.62;100.00;151211.38;4982957;28;20221;-58
2023/08/22 01:30:26;;;;;;;5.63;3.97;;;;;;;20.63;100.00;151213.88;4994419;28;20283;-58
2023/08/22 01:32:56;;;;;;;6.17;4.27;;;;;;;20.56;100.00;151195.06;4977972;28;20328;-58
2023/08/22 01:35:25;;;;;;;6.63;4.80;;;;;;;20.53;100.00;151188.81;5006601;28;20690;-55
2023/08/22 01:37:54;;;;;;;5.50;4.23;;;;;;;20.49;100.00;151180.00;5007561;28;20243;-58
2023/08/22 01:40:24;;;;;;;7.70;4.80;;;;;;;20.49;100.00;151180.00;5008417;28;20233;-56
2023/08/22 01:42:50;;;;;;;7.90;5.00;;;;;;;20.46;100.00;151171.25;5008302;28;20760;-57
2023/08/22 01:45:18;;;;;;;8.13;4.57;;;;;;;20.44;100.00;151167.47;4976625;28;20225;-58
2023/08/22 01:47:45;;;;;;;5.20;4.63;;;;;;;20.42;100.00;151161.25;5011282;28;20229;-57
2023/08/22 01:50:12;;;;;;;6.37;4.87;;;;;;;20.45;100.00;151168.75;4991291;28;20579;-58
2023/08/22 01:52:38;;;;;;;8.53;4.63;;;;;;;20.45;100.00;151168.75;5001085;28;20238;-57
2023/08/22 01:55:08;;;;;;;7.90;4.70;;;;;;;20.38;100.00;151152.44;4989914;28;20767;-57
2023/08/22 01:57:35;;;;;;;8.87;4.73;;;;;;;20.32;100.00;151138.69;4987813;28;20244;-56
2023/08/22 02:00:03;;;;;;;5.70;4.23;;;;;;;20.29;100.00;151131.16;4988600;28;20278;-57
2023/08/22 02:02:38;;;;;;;10.30;4.53;;;;;;;20.25;100.00;151119.88;5009694;28;20312;-56
2023/08/22 02:05:05;;;;;;;9.03;4.70;;;;;;;20.21;100.00;151111.13;5006060;28;20234;-57
2023/08/22 02:07:34;;;;;;;5.40;4.63;;;;;;;20.19;100.00;151106.09;4979203;28;20536;-58
2023/08/22 02:10:03;;;;;;;6.37;4.80;;;;;;;20.15;100.00;151096.09;5005375;28;20234;-57
2023/08/22 02:12:32;;;;;;;10.20;4.67;;;;;;;20.13;100.00;151092.34;5001984;28;20248;-57
2023/08/22 02:15:00;;;;;;;8.57;4.60;;;;;;;20.15;100.00;151097.31;4991267;28;20254;-58
2023/08/22 02:17:27;;;;;;;9.40;4.90;;;;;;;20.15;100.00;151096.09;4987615;28;20719;-58
2023/08/22 02:19:53;;;;;;;7.63;5.10;;;;;;;20.15;100.00;151097.31;5010017;28;20231;-56
2023/08/22 02:22:20;;;;;;;6.57;4.70;;;;;;;20.12;100.00;151088.56;4995915;28;20553;-56
2023/08/22 02:24:46;;;;;;;11.37;4.73;;;;;;;20.10;100.00;151084.84;5008260;28;20251;-58
2023/08/22 02:27:15;;;;;;;6.77;4.83;;;;;;;20.07;100.00;151077.31;4981516;28;20235;-58
2023/08/22 02:29:45;;;;;;;7.77;4.73;;;;;;;20.00;100.00;151061.00;4993132;28;20325;-58
2023/08/22 02:32:15;;;;;;;10.27;5.47;;;;;;;20.04;100.00;151069.81;5007765;28;20320;-58
2023/08/22 02:34:42;;;;;;;7.40;5.03;;;;;;;19.93;100.00;151043.47;4990533;28;20233;-58
2023/08/22 02:37:09;;;;;;;7.80;4.70;;;;;;;19.91;100.00;151039.75;4989543;28;20255;-58
2023/08/22 02:39:35;;;;;;;8.67;4.97;;;;;;;19.88;100.00;151032.16;4993493;28;20245;-57
2023/08/22 02:42:02;;;;;;;8.87;5.00;;;;;;;19.93;100.00;151042.25;4996063;28;20262;-58
2023/08/22 02:44:29;;;;;;;7.97;5.10;;;;;;;19.87;100.00;151028.41;4992016;28;20326;-58
2023/08/22 02:46:56;;;;;;;8.57;5.00;;;;;;;19.84;100.00;151022.16;5009728;28;20236;-57
2023/08/22 02:49:23;;;;;;;8.07;5.27;;;;;;;19.84;100.00;151022.16;4972090;28;22029;-57
2023/08/22 02:51:50;;;;;;;6.77;5.33;;;;;;;19.82;100.00;151017.13;4991929;28;20256;-58
2023/08/22 02:54:16;;;;;;;9.63;5.23;;;;;;;19.79;100.00;151009.63;4987046;28;20237;-57
2023/08/22 02:56:43;;;;;;;9.57;5.63;;;;;;;19.81;100.00;151014.63;4993766;28;20235;-58
2023/08/22 02:59:09;;;;;;;8.67;5.40;;;;;;;19.84;100.00;151020.88;4987486;28;20251;-56
2023/08/22 03:01:36;;;;;;;7.33;5.63;;;;;;;19.80;100.00;151012.13;4989998;28;20240;-58
2023/08/22 03:04:04;;;;;;;9.80;5.47;;;;;;;19.79;100.00;151008.34;5007691;28;20712;-58
2023/08/22 03:06:31;;;;;;;8.47;5.90;;;;;;;19.72;100.00;150992.09;4972126;28;20717;-56
2023/08/22 03:08:57;;;;;;;8.07;6.07;;;;;;;19.69;100.00;150984.56;4992510;28;20584;-57
2023/08/22 03:11:24;;;;;;;8.13;6.07;;;;;;;19.68;100.00;150983.28;4990474;28;20266;-57
2023/08/22 03:13:51;;;;;;;8.80;6.53;;;;;;;19.68;100.00;150982.06;4977397;28;20237;-57
2023/08/22 03:16:17;;;;;;;8.73;6.03;;;;;;;19.69;100.00;150985.81;5003334;28;20239;-57
2023/08/22 03:18:45;;;;;;;11.07;5.60;;;;;;;19.68;100.00;150983.28;4995531;28;20240;-57
2023/08/22 03:21:14;;;;;;;9.90;5.90;;;;;;;19.64;100.00;150973.28;4990911;28;20696;-58
2023/08/22 03:23:41;;;;;;;9.73;6.33;;;;;;;19.59;100.00;150962.03;4994522;28;20235;-57
2023/08/22 03:26:10;;;;;;;7.10;6.00;;;;;;;19.64;100.00;150972.06;4980471;28;20601;-58
2023/08/22 03:28:39;;;;;;;10.50;5.83;;;;;;;19.65;100.00;150974.56;5010763;28;20625;-58
2023/08/22 03:31:06;;;;;;;6.97;6.00;;;;;;;19.58;100.00;150958.28;5300629;22;21149;-57
2023/08/22 03:33:34;;;;;;;8.40;5.70;;;;;;;19.55;100.00;150952.00;4993603;28;20738;-57
2023/08/22 03:36:04;;;;;;;12.30;6.50;;;;;;;19.50;100.00;150939.47;4982707;28;20238;-56
2023/08/22 03:38:32;;;;;;;10.10;5.80;;;;;;;19.50;100.00;150938.25;4976931;28;20334;-56
2023/08/22 03:40:59;;;;;;;8.57;5.90;;;;;;;19.55;100.00;150950.78;4975108;28;20242;-57
2023/08/22 03:43:26;;;;;;;8.87;6.03;;;;;;;19.59;100.00;150962.03;4976640;28;20235;-57
2023/08/22 03:45:53;;;;;;;11.40;5.97;;;;;;;19.50;100.00;150939.47;4985959;28;20293;-55
2023/08/22 03:48:19;;;;;;;8.10;5.83;;;;;;;19.45;100.00;150926.97;4975611;28;20279;-57
2023/08/22 03:50:48;;;;;;;11.63;6.03;;;;;;;19.44;100.00;150925.72;4985830;28;20235;-57
2023/08/22 03:53:16;;;;;;;8.37;6.03;;;;;;;19.47;100.00;150931.97;4991664;28;20259;-57
2023/08/22 03:55:45;;;;;;;6.47;5.53;;;;;;;19.45;100.00;150926.97;4997065;28;20233;-56
2023/08/22 03:58:12;;;;;;;8.73;5.67;;;;;;;19.43;100.00;150923.22;4997974;28;20236;-55
2023/08/22 04:00:39;;;;;;;9.10;5.93;;;;;;;19.44;100.00;150924.47;5002416;28;20240;-56
2023/08/22 04:03:05;;;;;;;7.90;5.70;;;;;;;19.45;100.00;150928.25;4978138;28;20291;-56
2023/08/22 04:05:32;;;;;;;8.00;5.70;;;;;;;19.41;100.00;150916.94;4985996;28;20237;-56
2023/08/22 04:07:59;;;;;;;6.00;5.40;;;;;;;19.43;100.00;150921.94;4997247;28;20250;-57
2023/08/22 04:10:25;;;;;;;10.60;6.10;;;;;;;19.42;100.00;150920.72;4972665;28;20282;-57
2023/08/22 04:12:53;;;;;;;6.83;5.70;;;;;;;19.42;100.00;150919.44;4996359;28;20230;-57
2023/08/22 04:15:20;;;;;;;9.27;5.87;;;;;;;19.37;100.00;150906.94;4976505;28;20349;-57
2023/08/22 04:17:47;;;;;;;7.77;5.90;;;;;;;19.38;100.00;150910.72;4982940;28;20232;-57
2023/08/22 04:20:14;;;;;;;10.87;6.03;;;;;;;19.37;100.00;150906.94;4992075;28;20228;-57
2023/08/22 04:22:42;;;;;;;8.63;5.60;;;;;;;19.46;100.00;150929.47;4979159;28;20239;-57
2023/08/22 04:25:10;;;;;;;9.90;5.70;;;;;;;19.41;100.00;150916.94;4975574;28;20231;-56
2023/08/22 04:27:37;;;;;;;8.77;5.43;;;;;;;19.40;100.00;150915.72;4976546;28;20615;-56
2023/08/22 04:30:07;;;;;;;9.20;5.53;;;;;;;19.38;100.00;150910.72;4978206;28;20642;-57
2023/08/22 04:32:34;;;;;;;7.83;5.50;;;;;;;19.36;100.00;150905.69;4969470;28;20244;-55
2023/08/22 04:35:03;;;;;;;9.77;6.07;;;;;;;19.36;100.00;150905.69;4980663;28;20327;-57
2023/08/22 04:37:30;;;;;;;13.67;6.07;;;;;;;19.44;100.00;150924.47;4980430;28;20240;-56
2023/08/22 04:39:57;;;;;;;10.13;5.53;;;;;;;19.42;100.00;150919.44;4988048;28;20240;-56
2023/08/22 04:42:38;;;;;;;9.73;5.50;;;;;;;19.46;100.00;150929.47;4980679;28;20235;-56
2023/08/22 04:45:09;;;;;;;8.27;5.80;;;;;;;19.52;100.00;150943.28;4986142;28;20230;-55
2023/08/22 04:47:36;;;;;;;9.90;6.03;;;;;;;19.55;100.00;150950.78;4988324;28;20865;-56
2023/08/22 04:50:03;;;;;;;10.63;5.83;;;;;;;19.59;100.00;150960.81;4983243;28;20236;-57
2023/08/22 04:52:30;;;;;;;8.13;5.60;;;;;;;19.63;100.00;150970.78;4993736;28;20248;-57
2023/08/22 04:54:57;;;;;;;6.30;5.30;;;;;;;19.68;100.00;150982.06;4978918;28;20244;-56
2023/08/22 04:57:24;;;;;;;10.13;5.53;;;;;;;19.73;100.00;150994.59;4996390;28;20244;-56
2023/08/22 04:59:52;;;;;;;8.03;5.60;;;;;;;19.73;100.00;150994.59;4981597;28;20255;-57
2023/08/22 05:02:21;;;;;;;11.17;5.30;;;;;;;19.82;100.00;151017.13;4984670;28;20225;-56
2023/08/22 05:04:48;;;;;;;7.07;5.73;;;;;;;19.87;100.00;151028.41;4988882;28;20303;-56
2023/08/22 05:07:15;;;;;;;10.03;5.53;;;;;;;19.86;100.00;151025.88;4981895;28;20227;-54
2023/08/22 05:09:42;;;;;;;8.60;5.47;;;;;;;19.87;100.00;151028.41;4981864;28;20244;-54
2023/08/22 05:12:13;;;;;;;8.30;5.20;;;;;;;19.93;100.00;151043.47;4995826;28;20242;-56
2023/08/22 05:14:41;;;;;;;10.97;6.10;;;;;;;19.98;100.00;151054.78;4980490;28;20830;-57
2023/08/22 05:17:09;;;;;;;8.67;6.33;;;;;;;20.03;100.00;151067.28;4978008;28;20222;-56
2023/08/22 05:19:39;;;;;;;10.93;5.80;;;;;;;20.04;100.00;151069.81;4981881;28;20736;-57
2023/08/22 05:22:06;;;;;;;8.77;5.53;;;;;;;20.06;100.00;151074.81;4995915;28;20712;-55
2023/08/22 05:24:33;;;;;;;8.97;5.30;;;;;;;20.11;100.00;151087.34;4988752;28;20320;-57
2023/08/22 05:26:59;;;;;;;7.43;5.60;;;;;;;20.13;100.00;151091.06;4997568;28;20236;-57
2023/08/22 05:29:26;;;;;;;7.37;5.33;;;;;;;20.15;100.00;151097.31;4984245;28;20236;-57
2023/08/22 05:31:54;;;;;;;9.03;5.90;;;;;;;20.20;100.00;151109.84;4987861;28;20896;-57
2023/08/22 05:34:21;;;;;;;8.77;5.73;;;;;;;20.17;100.00;151102.31;4980116;28;20233;-57
2023/08/22 05:36:48;;;;;;;8.20;4.97;;;;;;;20.27;100.00;151124.88;4981099;28;20693;-58
2023/08/22 05:39:15;;;;;;;7.03;5.20;;;;;;;20.23;100.00;151116.13;4975720;28;20226;-57
2023/08/22 05:41:42;;;;;;;6.37;5.10;;;;;;;20.28;100.00;151127.38;4983164;28;20319;-56
2023/08/22 05:44:08;;;;;;;5.20;4.70;;;;;;;20.31;100.00;151134.91;4979201;28;20282;-57
2023/08/22 05:46:36;;;;;;;7.47;5.50;;;;;;;20.34;100.00;151142.41;4980089;28;20225;-58
2023/08/22 05:49:03;;;;;;;10.07;5.43;;;;;;;20.37;100.00;151148.72;4980797;28;20235;-56
2023/08/22 05:51:30;;;;;;;11.20;5.73;;;;;;;20.44;100.00;151166.25;4978300;28;20571;-55
2023/08/22 05:53:58;;;;;;;7.00;5.10;;;;;;;20.47;100.00;151175.00;4980909;28;20239;-56
2023/08/22 05:56:25;;;;;;;8.87;5.43;;;;;;;20.51;100.00;151183.78;4983111;28;20607;-55
2023/08/22 05:58:51;;;;;;;8.40;5.50;;;;;;;20.56;100.00;151196.31;4982292;28;20257;-56
2023/08/22 06:01:18;;;;;;;7.57;5.50;;;;;;;20.60;100.00;151205.06;4977654;28;20245;-56
2023/08/22 06:03:45;;;;;;;8.70;5.50;;;;;;;20.64;100.00;151216.38;4986326;28;20826;-56
2023/08/22 06:06:11;;;;;;;6.70;5.10;;;;;;;20.69;100.00;151227.63;4994953;28;20328;-56
2023/08/22 06:08:38;;;;;;;7.90;5.03;;;;;;;20.72;100.00;151233.88;4981885;28;20591;-55
2023/08/22 06:11:06;;;;;;;6.40;5.70;;;;;;;20.75;100.00;151241.41;4976669;28;20300;-55
2023/08/22 06:13:33;;;;;;;8.50;5.07;;;;;;;20.85;100.00;151266.50;4987523;28;20222;-56
2023/08/22 06:16:00;;;;;;;7.90;5.03;;;;;;;20.89;100.00;151275.31;4986986;28;20293;-58
2023/08/22 06:18:26;;;;;;;5.43;4.77;;;;;;;20.96;100.00;151291.56;4997770;28;20256;-56
2023/08/22 06:20:58;;;;;;;7.40;5.00;;;;;;;21.03;100.00;151310.41;4999268;28;20233;-53
2023/08/22 06:23:25;;;;;;;8.57;4.87;;;;;;;21.04;100.00;151312.91;4976601;28;20323;-56
2023/08/22 06:25:51;;;;;;;6.63;4.73;;;;;;;21.07;100.00;151319.16;4997267;28;20250;-56
2023/08/22 06:28:19;;;;;;;6.97;5.07;;;;;;;21.14;100.00;151335.47;4985005;28;20239;-54
2023/08/22 06:30:46;;;;;;;9.00;5.17;;;;;;;21.19;100.00;151348.00;4980921;28;20321;-56
2023/08/22 06:33:13;;;;;;;10.20;5.40;;;;;;;21.30;100.00;151375.53;4977989;28;20232;-56
2023/08/22 06:35:40;;;;;;;8.07;5.47;;;;;;;21.42;100.00;151403.13;4987849;28;20237;-56
2023/08/22 06:38:06;;;;;;;7.57;5.33;;;;;;;21.46;100.00;151414.44;4975256;28;20258;-56
2023/08/22 06:40:36;;;;;;;7.77;5.37;;;;;;;21.60;100.00;151448.25;4979908;28;20245;-57
2023/08/22 06:43:03;;;;;;;11.07;5.67;;;;;;;21.75;100.00;151483.41;4980588;28;20228;-56
2023/08/22 06:45:33;;;;;;;5.67;4.77;;;;;;;21.90;100.00;151521.03;4976639;28;20357;-57
2023/08/22 06:48:00;;;;;;;6.87;4.67;;;;;;;22.07;100.00;151562.41;4980325;28;20226;-56
2023/08/22 06:50:26;;;;;;;7.90;5.70;;;;;;;22.21;100.00;151596.28;4996950;28;20256;-55
2023/08/22 06:52:53;;;;;;;9.63;5.47;;;;;;;22.31;100.00;151620.09;4996577;28;20236;-56
2023/08/22 06:55:20;;;;;;;11.00;6.17;;;;;;;22.48;100.00;151661.50;4996409;28;20230;-60
2023/08/22 06:57:46;;;;;;;11.53;5.73;;;;;;;22.52;100.00;151671.53;4994693;28;20252;-56
2023/08/22 07:00:15;;;;;;;8.30;5.90;;;;;;;22.71;100.00;151716.72;4992682;28;20756;-53
2023/08/22 07:02:43;;;;;;;7.03;5.90;;;;;;;22.73;100.00;151720.50;4994988;28;20706;-56
2023/08/22 07:05:11;;;;;;;7.47;5.60;;;;;;;22.81;100.00;151741.81;4993713;28;20228;-55
2023/08/22 07:07:38;;;;;;;8.30;5.30;;;;;;;22.95;100.00;151774.44;4994820;28;20241;-56
2023/08/22 07:10:06;;;;;;;8.53;5.07;;;;;;;22.94;100.00;151771.91;4992621;28;20715;-56
2023/08/22 07:12:32;;;;;;;7.73;4.73;;;;;;;22.99;100.00;151785.69;4996087;28;20285;-55
2023/08/22 07:14:59;;;;;;;8.83;4.90;;;;;;;23.13;100.00;151819.59;4994902;28;20229;-56
2023/08/22 07:17:26;;;;;;;9.50;5.20;;;;;;;23.24;100.00;151845.97;4991100;28;20231;-57
2023/08/22 07:19:54;;;;;;;9.20;6.17;;;;;;;23.34;100.00;151869.78;4998583;28;20307;-57
2023/08/22 07:22:20;;;;;;;8.30;5.40;;;;;;;23.43;100.00;151892.38;4994785;28;20255;-56
2023/08/22 07:24:47;;;;;;;6.77;5.03;;;;;;;23.57;100.00;151925.03;4995798;28;20234;-55
2023/08/22 07:27:15;;;;;;;7.53;5.23;;;;;;;23.72;100.00;151962.69;4970824;28;20305;-56
2023/08/22 07:29:42;;;;;;;5.83;4.80;;;;;;;23.79;98.75;151977.75;4997223;28;20246;-56
2023/08/22 07:32:08;;;;;;;8.03;5.77;;;;;;;23.89;97.25;152004.06;4992121;28;20239;-55
2023/08/22 07:34:35;;;;;;;8.80;5.80;;;;;;;23.97;96.02;152021.66;4995328;28;20234;-55
2023/08/22 07:37:04;;;;;;;9.70;7.10;;;;;;;23.95;94.25;152016.63;4994544;28;20230;-56
2023/08/22 07:39:30;;;;;;;9.10;6.93;;;;;;;24.05;93.04;152041.78;4991399;28;20232;-56
2023/08/22 07:41:57;;;;;;;10.87;6.90;;;;;;;24.09;92.55;152051.84;4996294;28;20234;-57
2023/08/22 07:44:25;;;;;;;9.63;6.80;;;;;;;24.14;94.51;152063.16;4992761;28;20603;-56
2023/08/22 07:46:52;;;;;;;8.80;6.93;;;;;;;24.28;92.98;152098.31;4995551;28;20239;-56
2023/08/22 07:49:19;;;;;;;9.90;7.10;;;;;;;24.24;92.87;152088.25;4992427;28;20704;-57
2023/08/22 07:51:46;;;;;;;8.63;7.30;;;;;;;24.37;92.38;152118.41;4977880;28;20240;-57
2023/08/22 07:54:14;;;;;;;10.23;6.90;;;;;;;24.39;91.94;152124.66;4990105;28;20802;-56
2023/08/22 07:56:40;;;;;;;11.97;7.30;;;;;;;24.48;91.06;152145.97;4995377;28;20231;-54
2023/08/22 07:59:07;;;;;;;8.67;6.90;;;;;;;24.44;90.14;152135.94;4992032;28;20237;-56
2023/08/22 08:01:35;;;;;;;10.40;6.70;;;;;;;24.44;89.66;152137.22;4993950;28;20726;-55
2023/08/22 08:04:02;;;;;;;8.80;6.57;;;;;;;24.58;90.22;152169.88;4997788;28;20306;-58
2023/08/22 08:06:32;;;;;;;8.93;6.80;;;;;;;24.71;88.82;152202.53;4995394;28;20235;-58
2023/08/22 08:08:59;;;;;;;9.60;6.20;;;;;;;24.84;89.00;152233.94;5000521;28;20224;-56
2023/08/22 08:11:29;;;;;;;9.70;6.53;;;;;;;24.86;89.06;152237.72;4995238;28;20243;-58
2023/08/22 08:13:55;;;;;;;8.83;6.37;;;;;;;25.03;87.41;152280.38;4998576;28;20234;-56
2023/08/22 08:16:22;;;;;;;8.93;6.63;;;;;;;25.11;86.28;152299.25;4992685;28;20233;-58
2023/08/22 08:18:49;;;;;;;10.80;6.40;;;;;;;24.80;87.95;152222.66;5000110;28;20322;-57
2023/08/22 08:21:16;;;;;;;8.00;6.40;;;;;;;24.85;87.70;152235.22;4996631;28;20241;-58
2023/08/22 08:23:44;;;;;;;6.70;6.00;;;;;;;25.02;86.59;152276.66;5000323;28;20244;-57
2023/08/22 08:26:11;;;;;;;12.20;6.73;;;;;;;25.10;86.29;152296.75;4997217;28;20240;-56
2023/08/22 08:28:39;;;;;;;10.23;6.30;;;;;;;25.24;85.28;152329.41;5000486;28;20230;-57
2023/08/22 08:31:06;;;;;;;7.80;6.17;;;;;;;25.22;84.35;152325.63;4995636;28;20301;-58
2023/08/22 08:33:33;;;;;;;8.50;6.63;;;;;;;25.33;84.37;152353.25;4999539;28;20229;-57
2023/08/22 08:35:59;;;;;;;7.30;6.13;;;;;;;25.41;81.45;152370.84;5000341;28;20233;-58
2023/08/22 08:38:26;;;;;;;10.10;6.63;;;;;;;25.43;83.26;152377.16;4997509;28;20254;-57
2023/08/22 08:40:55;;;;;;;10.77;6.70;;;;;;;25.44;82.53;152379.66;4999466;28;20645;-57
2023/08/22 08:43:23;;;;;;;9.57;6.90;;;;;;;25.40;80.98;152369.59;4995933;28;20226;-57
2023/08/22 08:45:52;;;;;;;9.03;6.43;;;;;;;25.51;83.55;152396.00;4997764;28;20241;-57
2023/08/22 08:48:19;;;;;;;9.23;6.60;;;;;;;25.59;82.96;152414.84;4994752;28;20248;-57
2023/08/22 08:50:47;;;;;;;7.83;6.17;;;;;;;25.73;82.20;152448.78;4999691;28;20239;-57
2023/08/22 08:53:13;;;;;;;7.23;6.53;;;;;;;25.76;80.97;152456.31;4998590;28;20231;-57
2023/08/22 08:55:40;;;;;;;9.23;7.43;;;;;;;25.62;82.01;152422.38;5000154;28;20226;-57
2023/08/22 08:58:08;;;;;;;9.67;6.60;;;;;;;25.83;80.76;152473.91;4998546;28;20229;-57
2023/08/22 09:00:35;;;;;;;114.93;18.50;;;;;;;25.76;82.88;152456.31;4996277;28;20571;-58
2023/08/22 09:03:04;;;;;;;12.97;7.20;;;;;;;25.79;82.16;152463.88;4998563;28;20243;-58
2023/08/22 09:05:31;;;;;;;10.77;6.50;;;;;;;25.99;80.98;152512.84;4998740;28;20277;-58
2023/08/22 09:08:15;;;;;;;11.60;6.70;;;;;;;25.85;79.80;152477.66;4997995;28;20230;-57
2023/08/22 09:10:41;;;;;;;8.07;7.27;;;;;;;25.91;80.32;152492.75;4995097;28;20236;-58
2023/08/22 09:13:08;;;;;;;12.27;7.60;;;;;;;25.72;80.45;152447.50;4995600;28;20244;-55
2023/08/22 09:15:34;;;;;;;13.03;7.17;;;;;;;25.82;80.53;152470.13;4997903;28;20230;-58
2023/08/22 09:18:03;;;;;;;8.07;6.57;;;;;;;26.04;76.93;152524.13;4997801;28;20711;-58
2023/08/22 09:20:30;;;;;;;9.60;6.27;;;;;;;26.16;76.03;152553.13;4993500;28;20313;-57
2023/08/22 09:22:56;;;;;;;10.60;6.40;;;;;;;26.20;72.69;152564.41;5000197;28;20701;-57
2023/08/22 09:25:23;;;;;;;13.47;6.17;;;;;;;26.16;71.43;152553.13;4994931;28;20229;-57
2023/08/22 09:27:50;;;;;;;10.77;6.43;;;;;;;26.34;71.42;152597.09;4998043;28;20251;-58
2023/08/22 09:30:20;;;;;;;11.10;5.93;;;;;;;26.48;71.53;152631.03;4993092;28;20230;-57
2023/08/22 09:32:58;;;;;;;7.93;6.33;;;;;;;26.67;71.77;152678.75;4998107;28;20291;-58
2023/08/22 09:35:32;;;;;;;8.17;5.90;;;;;;;26.72;70.93;152688.81;4995943;28;20247;-58
2023/08/22 09:38:06;;;;;;;8.93;6.23;;;;;;;26.68;71.55;152681.28;4998971;28;20232;-56
2023/08/22 09:40:33;;;;;;;11.83;6.47;;;;;;;26.74;72.15;152695.13;4994690;28;20265;-57
2023/08/22 09:43:01;;;;;;;8.27;6.27;;;;;;;26.67;73.63;152678.75;4996891;28;20254;-57
2023/08/22 09:45:30;;;;;;;9.10;6.53;;;;;;;26.77;70.88;152702.66;4995401;28;20449;-57
2023/08/22 09:47:59;;;;;;;10.87;7.20;;;;;;;26.90;69.04;152734.13;4996124;28;20235;-58
2023/08/22 09:50:29;;;;;;;8.23;6.70;;;;;;;26.95;69.02;152746.69;4992313;28;20236;-58
2023/08/22 09:52:59;;;;;;;9.47;6.33;;;;;;;27.03;69.94;152764.31;4997048;28;20236;-58
2023/08/22 09:55:27;;;;;;;10.13;7.33;;;;;;;27.02;71.14;152761.78;4996590;28;20243;-57
2023/08/22 09:57:54;;;;;;;8.57;6.80;;;;;;;27.11;69.40;152784.41;4998336;28;20248;-57
2023/08/22 10:00:21;;;;;;;9.97;7.03;;;;;;;27.03;72.60;152765.53;4992390;28;20229;-56
2023/08/22 10:02:49;;;;;;;8.97;6.27;;;;;;;27.11;69.60;152785.66;4998374;28;20237;-57
2023/08/22 10:05:16;;;;;;;8.93;6.33;;;;;;;27.11;70.52;152784.41;4994534;28;20221;-57
2023/08/22 10:07:43;;;;;;;9.33;7.20;;;;;;;27.18;73.01;152800.75;4998130;28;20234;-57
2023/08/22 10:10:11;;;;;;;7.50;6.60;;;;;;;27.29;70.73;152827.16;4992538;28;20227;-57
2023/08/22 10:12:39;;;;;;;10.37;6.33;;;;;;;27.41;67.92;152858.59;4997300;28;20243;-55
2023/08/22 10:15:07;;;;;;;10.67;6.30;;;;;;;27.42;69.33;152859.88;4992702;28;20689;-57
2023/08/22 10:17:34;;;;;;;10.73;6.23;;;;;;;27.50;67.06;152880.03;4996870;28;20241;-57
2023/08/22 10:20:04;;;;;;;10.93;6.80;;;;;;;27.49;67.63;152877.53;4997575;28;20234;-57
2023/08/22 10:22:33;;;;;;;9.87;6.60;;;;;;;27.64;66.04;152913.97;4994994;28;20249;-58
2023/08/22 10:25:04;;;;;;;9.33;6.20;;;;;;;27.54;66.01;152890.09;4998154;28;20245;-58
2023/08/22 10:27:32;;;;;;;7.10;6.10;;;;;;;27.59;67.07;152900.13;4997241;28;20236;-56
2023/08/22 10:30:19;;;;;;;7.00;5.20;;;;;;;27.70;64.64;152929.06;4996690;28;20247;-57
2023/08/22 10:33:05;;;;;;;5.97;5.37;;;;;;;27.69;66.41;152925.28;4993517;28;20749;-57
2023/08/22 10:35:31;;;;;;;9.85;6.13;;;;;;;27.54;67.56;152890.09;4998676;28;20249;-58
2023/08/22 10:37:58;;;;;;;7.90;6.33;;;;;;;27.76;65.68;152941.63;4998618;28;20240;-58
2023/08/22 10:40:33;;;;;;;8.57;5.93;;;;;;;27.75;65.32;152940.34;4975544;28;20253;-58
2023/08/22 10:43:12;;;;;;;6.20;5.53;;;;;;;27.84;65.88;152963.00;4999073;28;20220;-58
2023/08/22 10:45:40;;;;;;;9.27;6.47;;;;;;;27.79;66.16;152950.41;4994450;28;20646;-58
2023/08/22 10:48:10;;;;;;;7.53;5.80;;;;;;;27.94;67.47;152985.63;4992119;28;20238;-59
2023/08/22 10:50:37;;;;;;;8.30;6.27;;;;;;;28.06;68.08;153014.59;4999210;28;20266;-59
2023/08/22 10:53:21;;;;;;;8.93;6.13;;;;;;;28.17;65.96;153042.28;4999034;28;20239;-57
2023/08/22 10:55:49;;;;;;;8.97;6.33;;;;;;;28.16;64.91;153039.75;4992399;28;20225;-58
2023/08/22 10:58:40;;;;;;;7.00;5.60;;;;;;;28.16;66.49;153038.53;4994464;28;20321;-58
2023/08/22 11:01:11;;;;;;;9.53;6.10;;;;;;;28.36;64.68;153087.56;4993290;28;20245;-58
2023/08/22 11:03:38;;;;;;;11.15;6.32;;;;;;;28.37;63.66;153090.06;4997420;28;20248;-57
2023/08/22 11:06:14;;;;;;;7.37;5.60;;;;;;;28.28;63.88;153068.72;4992138;28;20246;-59
2023/08/22 11:08:43;;;;;;;8.23;5.65;;;;;;;28.21;65.69;153051.09;4996472;28;20239;-60
2023/08/22 11:11:12;;;;;;;10.60;5.93;;;;;;;28.17;65.24;153041.03;4994409;28;20235;-59
2023/08/22 11:13:41;;;;;;;10.40;5.80;;;;;;;28.35;65.70;153086.34;4997490;28;20887;-59
2023/08/22 11:16:10;;;;;;;7.15;5.80;;;;;;;28.47;63.56;153114.00;4991958;28;20282;-58
2023/08/22 11:18:38;;;;;;;8.10;5.03;;;;;;;28.59;60.82;153144.19;4996435;28;20242;-57
2023/08/22 11:21:05;;;;;;;10.73;5.37;;;;;;;28.65;61.27;153158.03;4996545;28;20237;-57
2023/08/22 11:23:32;;;;;;;7.60;5.40;;;;;;;28.71;60.53;153174.34;4989409;28;20240;-57